Terminal Aerodrome Forecast
Issued by NWS

Home | Current Version | Previous Version | Text Only | Print | Product List | Glossary On
Versions: 1 2 3 4 5 6 7 8 9 10 11 12 13 14 15 16 17 18
000
FTUS43 KDVN 281939 AAA
TAFCID
TAF AMD
KCID 281939Z 2820/2918 33009KT P6SM BKN050
     FM290500 34006KT 2SM BR OVC015
     FM291400 01007KT P6SM OVC015=

USA.gov is the U.S. government's official web portal to all federal, state and local government web resources and services.